createdAt,value
2022-08-19T00:01:59.035Z,98.21
2022-08-19T00:04:38.176Z,98.58
2022-08-19T00:07:08.794Z,98.33
2022-08-19T00:09:37.905Z,98.50
2022-08-19T00:12:07.106Z,98.65
2022-08-19T00:14:36.465Z,98.53
2022-08-19T00:17:07.239Z,99.57
2022-08-19T00:19:36.947Z,99.67
2022-08-19T00:22:07.973Z,99.42
2022-08-19T00:24:38.614Z,99.67
2022-08-19T00:27:25.688Z,99.94
2022-08-19T00:29:56.589Z,100.00
2022-08-19T00:32:26.458Z,100.00
2022-08-19T00:34:56.434Z,100.00
2022-08-19T00:37:28.190Z,100.00
2022-08-19T00:39:58.013Z,100.00
2022-08-19T00:42:30.359Z,100.00
2022-08-19T00:44:59.479Z,100.00
2022-08-19T00:47:28.945Z,100.00
2022-08-19T00:50:02.072Z,100.00
2022-08-19T00:52:41.966Z,100.00
2022-08-19T00:55:13.996Z,100.00
2022-08-19T00:57:48.657Z,100.00
2022-08-19T01:00:21.434Z,100.00
2022-08-19T01:03:09.155Z,100.00
2022-08-19T01:05:39.837Z,100.00
2022-08-19T01:08:09.819Z,100.00
2022-08-19T01:10:45.531Z,100.00
2022-08-19T01:13:17.827Z,100.00
2022-08-19T01:16:05.465Z,100.00
2022-08-19T01:18:38.443Z,100.00
2022-08-19T01:21:34.633Z,100.00
2022-08-19T01:24:04.037Z,100.00
2022-08-19T01:26:45.987Z,100.00
2022-08-19T01:29:15.923Z,100.00
2022-08-19T01:31:44.919Z,100.00
2022-08-19T01:34:14.101Z,100.00
2022-08-19T01:36:49.310Z,99.40
2022-08-19T01:39:26.101Z,99.91
2022-08-19T01:41:56.348Z,99.59
2022-08-19T01:44:26.211Z,99.36
2022-08-19T01:46:55.248Z,99.76
2022-08-19T01:49:27.306Z,100.00
2022-08-19T01:51:57.503Z,100.00
2022-08-19T01:54:29.688Z,99.51
2022-08-19T01:57:09.097Z,100.00
2022-08-19T01:59:38.450Z,100.00
2022-08-19T02:02:11.060Z,100.00
2022-08-19T02:04:41.020Z,100.00
2022-08-19T08:50:06.903Z,61.24
2022-08-19T08:52:44.172Z,62.01
2022-08-19T08:55:25.135Z,60.30
2022-08-19T08:57:56.855Z,63.31
2022-08-19T09:00:55.226Z,60.51
2022-08-19T09:03:28.062Z,60.62
2022-08-19T09:06:12.150Z,61.70
2022-08-19T09:08:56.672Z,60.77
2022-08-19T09:12:07.514Z,62.32
2022-08-19T09:15:12.654Z,62.68
2022-08-19T09:17:42.087Z,62.38
2022-08-19T09:20:26.237Z,61.63
2022-08-19T09:22:56.116Z,62.16
2022-08-19T09:25:29.478Z,62.73
2022-08-19T09:28:05.640Z,63.82
2022-08-19T09:30:42.267Z,63.02
2022-08-19T09:33:17.774Z,63.23
2022-08-19T09:35:49.933Z,63.53
2022-08-19T09:38:26.307Z,60.40
2022-08-19T09:41:02.156Z,59.86
2022-08-19T09:43:44.607Z,60.50
2022-08-19T09:46:27.141Z,62.45
2022-08-19T09:48:59.414Z,61.45
2022-08-19T09:51:39.224Z,62.16
2022-08-19T09:54:16.872Z,60.21
2022-08-19T09:56:57.061Z,59.48
2022-08-19T09:59:26.233Z,59.75
2022-08-19T10:01:56.127Z,61.72
2022-08-19T10:04:52.078Z,61.29
2022-08-19T10:07:22.315Z,59.86
2022-08-19T10:09:58.756Z,60.02
2022-08-19T10:12:27.766Z,60.45
2022-08-19T10:14:57.769Z,62.20
2022-08-19T10:17:31.617Z,60.93
2022-08-19T10:20:04.460Z,61.44
2022-08-19T10:22:33.803Z,61.78
2022-08-19T10:25:02.820Z,61.18
2022-08-19T10:27:33.179Z,62.16
2022-08-19T10:30:09.981Z,63.13
2022-08-19T10:32:40.522Z,61.64
2022-08-19T10:35:22.035Z,62.56
2022-08-19T10:38:00.184Z,61.38
2022-08-19T10:40:31.798Z,62.56
2022-08-19T10:43:01.112Z,62.98
2022-08-19T10:45:30.164Z,62.45
2022-08-19T10:47:59.310Z,63.70
2022-08-19T10:50:47.794Z,61.95
2022-08-19T10:53:17.925Z,63.14
2022-08-19T10:56:05.859Z,61.83
2022-08-19T10:58:34.805Z,61.45
2022-08-19T11:01:04.161Z,60.96
2022-08-19T11:03:33.804Z,60.71
2022-08-19T11:06:04.717Z,59.95
2022-08-19T11:08:34.587Z,60.54
2022-08-19T11:11:05.243Z,60.75
2022-08-19T11:13:39.186Z,60.12
2022-08-19T11:16:15.386Z,61.28
2022-08-19T11:18:48.235Z,60.27
2022-08-19T11:21:24.236Z,62.31
2022-08-19T11:23:56.809Z,65.46
2022-08-19T11:26:27.536Z,65.68
2022-08-19T11:28:57.424Z,65.38
2022-08-19T11:31:29.847Z,63.90
2022-08-19T11:34:03.568Z,62.87
2022-08-19T11:36:34.762Z,62.51
2022-08-19T11:39:06.047Z,61.13
2022-08-19T11:41:35.240Z,60.37
2022-08-19T11:44:06.519Z,59.58
2022-08-19T11:46:36.846Z,59.41
2022-08-19T11:49:10.722Z,60.65
2022-08-19T11:51:45.224Z,59.16
2022-08-19T11:54:16.656Z,60.27
2022-08-19T11:56:48.082Z,59.48
2022-08-19T11:59:18.019Z,58.96
2022-08-19T12:01:47.202Z,60.67
2022-08-19T12:04:16.818Z,60.16
2022-08-19T12:06:47.715Z,61.62
2022-08-19T12:09:17.624Z,59.27
2022-08-19T12:11:46.587Z,59.92
2022-08-19T12:14:16.871Z,59.62
2022-08-19T12:16:52.386Z,59.20
2022-08-19T12:19:22.655Z,59.63
2022-08-19T12:21:53.403Z,60.13
2022-08-19T12:24:25.043Z,60.76
2022-08-19T12:26:55.531Z,60.07
2022-08-19T12:29:38.911Z,61.34
2022-08-19T12:32:08.122Z,62.35
2022-08-19T12:34:39.898Z,62.88
2022-08-19T12:37:09.466Z,63.53
2022-08-19T12:39:43.416Z,64.71
2022-08-19T12:42:14.982Z,64.17
2022-08-19T12:44:45.849Z,65.02
2022-08-19T12:47:19.619Z,64.85
2022-08-19T12:49:53.435Z,64.76
2022-08-19T12:52:28.968Z,63.85
2022-08-19T12:54:59.462Z,64.12
2022-08-19T12:57:32.727Z,65.46
2022-08-19T13:00:22.650Z,65.52
2022-08-19T13:02:54.111Z,66.47
2022-08-19T13:05:26.775Z,67.13
2022-08-19T13:07:59.097Z,66.86
2022-08-19T13:10:37.672Z,67.36
2022-08-19T13:13:09.352Z,67.93
2022-08-19T13:15:47.163Z,67.12
2022-08-19T13:18:20.948Z,67.88
2022-08-19T13:20:52.617Z,67.67
2022-08-19T13:23:22.103Z,68.47
2022-08-19T13:26:02.859Z,68.70
2022-08-19T13:28:49.983Z,69.58
2022-08-19T13:31:39.683Z,69.58
2022-08-19T13:34:09.893Z,69.71
2022-08-19T13:36:40.295Z,69.18
2022-08-19T13:39:11.521Z,69.40
2022-08-19T13:41:50.109Z,69.57
2022-08-19T13:44:23.020Z,68.54
2022-08-19T13:46:54.697Z,69.07
2022-08-19T13:49:25.038Z,68.45
2022-08-19T13:51:54.174Z,68.83
2022-08-19T13:54:23.675Z,67.86
2022-08-19T13:56:53.328Z,67.67
2022-08-19T13:59:22.304Z,67.36
2022-08-19T14:01:51.940Z,66.63
2022-08-19T14:04:21.491Z,67.06
2022-08-19T14:06:51.106Z,65.91
2022-08-19T14:09:20.069Z,66.57
2022-08-19T14:11:49.578Z,66.92
2022-08-19T14:14:18.628Z,66.10
2022-08-19T14:16:48.235Z,66.71
2022-08-19T14:19:17.318Z,66.33
2022-08-19T14:21:46.513Z,66.89
2022-08-19T14:24:15.620Z,68.15
2022-08-19T14:26:44.676Z,67.63
2022-08-19T14:29:14.694Z,67.26
2022-08-19T14:31:45.451Z,68.64
2022-08-19T14:34:15.379Z,69.74
2022-08-19T14:36:44.610Z,68.79
2022-08-19T14:39:14.997Z,68.76
2022-08-19T14:41:44.664Z,68.61
2022-08-19T14:44:17.617Z,69.23
2022-08-19T14:46:49.666Z,68.52
2022-08-19T14:49:20.504Z,69.07
2022-08-19T14:51:58.800Z,68.61
2022-08-19T14:54:28.407Z,68.83
2022-08-19T14:56:59.717Z,68.60
2022-08-19T14:59:29.018Z,69.01
2022-08-19T15:01:58.018Z,69.21
2022-08-19T15:04:29.681Z,69.07
2022-08-19T15:07:01.611Z,69.32
2022-08-19T15:09:30.522Z,70.44
2022-08-19T15:12:01.540Z,69.95
2022-08-19T15:14:37.243Z,69.16
2022-08-19T15:17:09.060Z,69.57
2022-08-19T15:19:38.235Z,69.53
2022-08-19T15:22:07.303Z,70.80
2022-08-19T15:24:38.184Z,71.34
2022-08-19T15:27:17.273Z,70.05
2022-08-19T15:29:47.445Z,70.77
2022-08-19T15:32:16.575Z,70.85
2022-08-19T15:34:46.297Z,70.89
2022-08-19T15:37:15.758Z,70.84
2022-08-19T15:39:44.752Z,70.72
2022-08-19T15:42:14.828Z,72.81
2022-08-19T15:45:01.431Z,71.66
2022-08-19T15:47:35.283Z,71.69
2022-08-19T15:50:16.026Z,72.00
2022-08-19T15:53:09.332Z,72.05
2022-08-19T15:55:48.096Z,71.92
2022-08-19T15:58:35.798Z,71.78
2022-08-19T16:01:27.746Z,71.99
2022-08-19T16:04:17.323Z,73.14
2022-08-19T16:06:49.674Z,73.04
2022-08-19T16:09:24.952Z,74.34
2022-08-19T16:12:03.087Z,73.82
2022-08-19T16:14:34.840Z,74.74
2022-08-19T16:17:04.523Z,74.35
2022-08-19T16:19:34.260Z,73.55
2022-08-19T16:22:03.687Z,73.78
2022-08-19T16:24:34.752Z,73.96
2022-08-19T16:27:04.616Z,74.50
2022-08-19T16:29:39.327Z,74.20
2022-08-19T16:32:12.590Z,74.73
2022-08-19T16:34:42.727Z,74.05
2022-08-19T16:37:12.254Z,74.25
2022-08-19T16:39:43.741Z,73.91
2022-08-19T16:42:13.462Z,73.90
2022-08-19T16:44:46.661Z,75.21
2022-08-19T16:47:17.527Z,74.94
2022-08-19T16:49:53.328Z,75.03
2022-08-19T16:52:28.007Z,74.72
2022-08-19T16:54:58.508Z,74.75
2022-08-19T16:57:27.772Z,75.65
2022-08-19T16:59:56.879Z,75.38
2022-08-19T17:02:29.721Z,74.60
2022-08-19T17:05:01.664Z,75.49
2022-08-19T17:07:33.616Z,76.07
2022-08-19T17:10:06.890Z,75.81
2022-08-19T17:12:36.072Z,75.84
2022-08-19T17:15:09.478Z,75.43
2022-08-19T17:17:38.432Z,75.66
2022-08-19T17:20:08.850Z,75.17
2022-08-19T17:22:38.541Z,74.91
2022-08-19T17:25:08.887Z,75.34
2022-08-19T17:27:38.574Z,75.41
2022-08-19T17:30:08.327Z,74.84
2022-08-19T17:32:37.391Z,75.58
2022-08-19T17:35:06.771Z,75.30
2022-08-19T17:37:37.931Z,75.43
2022-08-19T17:40:10.975Z,75.70
2022-08-19T17:42:41.581Z,75.35
2022-08-19T17:45:12.591Z,75.95
2022-08-19T17:47:42.434Z,75.95
2022-08-19T17:50:14.273Z,75.81
2022-08-19T17:52:45.414Z,76.07
2022-08-19T17:55:14.473Z,76.14
2022-08-19T17:57:46.801Z,76.38
2022-08-19T18:00:17.728Z,76.46
2022-08-19T18:02:56.654Z,76.74
2022-08-19T18:05:30.625Z,76.51
2022-08-19T18:08:01.188Z,76.98
2022-08-19T18:10:35.090Z,76.68
2022-08-19T18:13:17.447Z,77.05
2022-08-19T18:15:48.348Z,77.49
2022-08-19T18:18:17.944Z,77.26
2022-08-19T18:20:47.167Z,77.22
2022-08-19T18:23:43.955Z,78.48
2022-08-19T18:26:06.183Z,77.96
2022-08-19T18:28:35.576Z,78.23
2022-08-19T18:31:05.500Z,78.45
2022-08-19T18:33:36.129Z,79.34
2022-08-19T18:36:13.429Z,78.19
2022-08-19T18:39:05.070Z,78.17
2022-08-19T18:41:54.213Z,77.88
2022-08-19T18:44:41.991Z,79.40
2022-08-19T18:47:29.221Z,78.54
2022-08-19T18:49:58.285Z,78.71
2022-08-19T18:52:28.865Z,78.66
2022-08-19T18:54:58.079Z,77.65
2022-08-19T18:57:27.434Z,77.74
2022-08-19T18:59:57.635Z,77.92
2022-08-19T19:02:28.090Z,78.33
2022-08-19T19:04:57.331Z,78.11
2022-08-19T19:07:27.335Z,78.99
2022-08-19T19:09:57.353Z,78.61
2022-08-19T19:12:30.367Z,79.24
2022-08-19T19:15:00.076Z,78.82
2022-08-19T19:17:29.251Z,79.07
2022-08-19T19:19:58.942Z,78.23
2022-08-19T19:22:28.482Z,78.31
2022-08-19T19:24:57.572Z,78.31
2022-08-19T19:27:27.061Z,79.19
2022-08-19T19:29:56.696Z,79.76
2022-08-19T19:32:30.580Z,80.23
2022-08-19T19:35:00.564Z,80.04
2022-08-19T19:37:30.062Z,79.48
2022-08-19T19:39:59.163Z,80.55
2022-08-19T19:42:28.863Z,80.33
2022-08-19T19:44:58.157Z,81.00
2022-08-19T19:47:29.360Z,80.11
2022-08-19T19:50:13.869Z,80.33
2022-08-19T19:52:46.877Z,80.14
2022-08-19T19:55:19.325Z,80.71
2022-08-19T19:57:49.935Z,80.81
2022-08-19T20:00:19.940Z,80.12
2022-08-19T20:02:51.101Z,80.92
2022-08-19T20:05:23.960Z,80.31
2022-08-19T20:08:13.731Z,80.95
2022-08-19T20:10:44.602Z,80.08
2022-08-19T20:13:16.530Z,80.43
2022-08-19T20:15:46.594Z,80.44
2022-08-19T20:18:16.591Z,80.88
2022-08-19T20:20:51.066Z,80.64
2022-08-19T20:23:23.269Z,80.58
2022-08-19T20:25:53.053Z,81.25
2022-08-19T20:28:24.008Z,81.72
2022-08-19T20:30:54.995Z,81.15
2022-08-19T20:33:24.235Z,81.78
2022-08-19T20:35:53.470Z,82.54
2022-08-19T20:38:22.678Z,82.61
2022-08-19T20:40:54.061Z,82.66
2022-08-19T20:43:23.061Z,82.85
2022-08-19T20:45:52.725Z,82.31
2022-08-19T20:48:21.551Z,81.81
2022-08-19T20:50:53.349Z,81.88
2022-08-19T20:53:24.722Z,82.69
2022-08-19T20:55:55.487Z,82.31
2022-08-19T20:58:29.096Z,82.22
2022-08-19T21:01:01.353Z,82.21
2022-08-19T21:03:31.840Z,81.83
2022-08-19T21:06:01.009Z,82.59
2022-08-19T21:08:30.899Z,82.81
2022-08-19T21:11:00.294Z,82.58
2022-08-19T21:13:29.760Z,83.43
2022-08-19T21:15:58.785Z,83.04
2022-08-19T21:18:28.586Z,83.48
2022-08-19T21:20:58.121Z,83.41
2022-08-19T21:23:30.537Z,83.87
2022-08-19T21:26:01.593Z,83.98
2022-08-19T21:28:36.045Z,83.15
2022-08-19T21:31:08.431Z,83.71
2022-08-19T21:33:38.760Z,83.83
2022-08-19T21:36:08.249Z,82.81
2022-08-19T21:38:38.506Z,83.26
2022-08-19T21:41:08.098Z,83.79
2022-08-19T21:43:38.963Z,83.83
2022-08-19T21:46:08.705Z,83.01
2022-08-19T21:48:38.082Z,83.63
2022-08-19T21:51:07.420Z,82.50
2022-08-19T21:53:38.249Z,82.79
2022-08-19T21:56:08.004Z,83.08
2022-08-19T21:58:41.452Z,82.46
2022-08-19T22:01:10.495Z,83.29
2022-08-19T22:03:40.516Z,82.81
2022-08-19T22:06:10.613Z,82.59
2022-08-19T22:08:40.277Z,81.70
2022-08-19T22:11:09.448Z,81.84
2022-08-19T22:13:41.345Z,81.81
2022-08-19T22:16:11.768Z,82.10
2022-08-19T22:18:40.998Z,81.98
2022-08-19T22:21:12.088Z,82.05
2022-08-19T22:23:42.898Z,82.36
2022-08-19T22:26:13.515Z,81.69
2022-08-19T22:28:43.647Z,82.66
2022-08-19T22:31:13.203Z,82.38
2022-08-19T22:33:42.509Z,82.23
2022-08-19T22:36:11.894Z,82.52
2022-08-19T22:38:41.002Z,82.77
2022-08-19T22:41:09.703Z,82.61
2022-08-19T22:43:38.903Z,82.51
2022-08-19T22:46:17.155Z,82.86
2022-08-19T22:48:47.871Z,82.42
2022-08-19T22:51:40.629Z,82.29
2022-08-19T22:54:10.084Z,82.75
2022-08-19T22:56:38.975Z,82.30
2022-08-19T22:59:09.431Z,83.05
2022-08-19T23:01:38.620Z,83.40
2022-08-19T23:04:07.483Z,83.97
2022-08-19T23:06:40.272Z,85.02
2022-08-19T23:09:16.783Z,85.33
2022-08-19T23:11:47.101Z,84.88
2022-08-19T23:14:17.079Z,85.42
2022-08-19T23:16:50.974Z,86.42
2022-08-19T23:19:21.638Z,85.78
2022-08-19T23:21:51.118Z,85.34
2022-08-19T23:24:20.288Z,85.24
2022-08-19T23:27:07.921Z,85.87
2022-08-19T23:29:55.469Z,86.03
2022-08-19T23:32:26.623Z,85.84
2022-08-19T23:34:57.517Z,86.76
2022-08-19T23:37:28.958Z,86.08
2022-08-19T23:39:57.700Z,86.51
2022-08-19T23:42:30.205Z,87.17
2022-08-19T23:45:08.123Z,86.63
2022-08-19T23:47:41.514Z,87.11
2022-08-19T23:50:11.788Z,87.44
2022-08-19T23:52:49.891Z,87.51
2022-08-19T23:55:21.904Z,87.10
2022-08-19T23:57:51.581Z,87.07
